sensor_id;sensor_type;location;lat;lon;timestamp;pressure;altitude;pressure_sealevel;temperature;humidity
22550;BME280;11441;57.164;-2.120;2022-12-01T00:02:06;102063.28;;;6.91;100.00
22550;BME280;11441;57.164;-2.120;2022-12-01T00:04:33;102068.47;;;6.93;100.00
22550;BME280;11441;57.164;-2.120;2022-12-01T00:07:01;102069.16;;;6.85;100.00
22550;BME280;11441;57.164;-2.120;2022-12-01T00:09:28;102073.66;;;6.94;100.00
22550;BME280;11441;57.164;-2.120;2022-12-01T00:12:14;102071.41;;;6.96;100.00
22550;BME280;11441;57.164;-2.120;2022-12-01T00:14:41;102067.34;;;6.94;100.00
22550;BME280;11441;57.164;-2.120;2022-12-01T00:17:08;102064.53;;;6.99;100.00
22550;BME280;11441;57.164;-2.120;2022-12-01T00:19:34;102060.38;;;7.02;100.00
22550;BME280;11441;57.164;-2.120;2022-12-01T00:22:01;102054.19;;;6.96;100.00
22550;BME280;11441;57.164;-2.120;2022-12-01T00:24:28;102056.53;;;7.03;100.00
22550;BME280;11441;57.164;-2.120;2022-12-01T00:26:55;102051.72;;;6.94;100.00
22550;BME280;11441;57.164;-2.120;2022-12-01T00:29:22;102047.88;;;6.95;100.00
22550;BME280;11441;57.164;-2.120;2022-12-01T00:31:49;102049.00;;;6.94;100.00
22550;BME280;11441;57.164;-2.120;2022-12-01T00:34:23;102052.16;;;7.02;100.00
22550;BME280;11441;57.164;-2.120;2022-12-01T00:36:50;102052.91;;;7.07;100.00
22550;BME280;11441;57.164;-2.120;2022-12-01T00:39:18;102049.25;;;7.12;100.00
22550;BME280;11441;57.164;-2.120;2022-12-01T00:41:44;102041.75;;;7.04;100.00
22550;BME280;11441;57.164;-2.120;2022-12-01T00:44:11;102040.91;;;7.03;100.00
22550;BME280;11441;57.164;-2.120;2022-12-01T00:46:38;102041.13;;;7.07;100.00
22550;BME280;11441;57.164;-2.120;2022-12-01T00:49:05;102035.56;;;7.12;100.00
22550;BME280;11441;57.164;-2.120;2022-12-01T00:51:32;102025.66;;;7.16;100.00
22550;BME280;11441;57.164;-2.120;2022-12-01T00:53:59;102024.59;;;7.12;100.00
22550;BME280;11441;57.164;-2.120;2022-12-01T00:56:26;102031.00;;;7.07;100.00
22550;BME280;11441;57.164;-2.120;2022-12-01T00:58:53;102030.50;;;7.19;100.00
22550;BME280;11441;57.164;-2.120;2022-12-01T01:01:19;102025.88;;;7.20;100.00
22550;BME280;11441;57.164;-2.120;2022-12-01T01:03:47;102020.75;;;7.13;100.00
22550;BME280;11441;57.164;-2.120;2022-12-01T01:06:14;102011.91;;;7.02;100.00
22550;BME280;11441;57.164;-2.120;2022-12-01T01:08:41;102018.53;;;7.15;100.00
22550;BME280;11441;57.164;-2.120;2022-12-01T01:11:08;102023.34;;;7.23;100.00
22550;BME280;11441;57.164;-2.120;2022-12-01T01:13:37;102027.69;;;7.24;100.00
22550;BME280;11441;57.164;-2.120;2022-12-01T01:16:19;102028.09;;;7.17;100.00
22550;BME280;11441;57.164;-2.120;2022-12-01T01:18:46;102029.91;;;7.22;100.00
22550;BME280;11441;57.164;-2.120;2022-12-01T01:21:15;102042.47;;;7.42;100.00
22550;BME280;11441;57.164;-2.120;2022-12-01T01:23:43;102037.25;;;7.27;100.00
22550;BME280;11441;57.164;-2.120;2022-12-01T01:26:16;102038.88;;;7.28;100.00
22550;BME280;11441;57.164;-2.120;2022-12-01T01:28:44;102032.88;;;7.26;100.00
22550;BME280;11441;57.164;-2.120;2022-12-01T01:31:14;102052.56;;;7.28;100.00
22550;BME280;11441;57.164;-2.120;2022-12-01T01:33:41;102042.09;;;7.16;100.00
22550;BME280;11441;57.164;-2.120;2022-12-01T01:36:26;102049.47;;;7.15;100.00
22550;BME280;11441;57.164;-2.120;2022-12-01T01:38:53;102044.84;;;7.16;100.00
22550;BME280;11441;57.164;-2.120;2022-12-01T01:41:22;102047.66;;;7.11;100.00
22550;BME280;11441;57.164;-2.120;2022-12-01T01:43:54;102054.03;;;7.06;100.00
22550;BME280;11441;57.164;-2.120;2022-12-01T01:46:30;102049.19;;;7.17;100.00
22550;BME280;11441;57.164;-2.120;2022-12-01T01:49:06;102053.34;;;7.14;100.00
22550;BME280;11441;57.164;-2.120;2022-12-01T01:51:50;102049.31;;;7.26;100.00
22550;BME280;11441;57.164;-2.120;2022-12-01T01:54:22;102046.97;;;7.19;100.00
22550;BME280;11441;57.164;-2.120;2022-12-01T01:56:51;102047.75;;;7.06;100.00
22550;BME280;11441;57.164;-2.120;2022-12-01T01:59:22;102048.31;;;7.03;100.00
22550;BME280;11441;57.164;-2.120;2022-12-01T02:01:56;102050.03;;;6.98;100.00
22550;BME280;11441;57.164;-2.120;2022-12-01T02:04:26;102043.28;;;7.10;100.00
22550;BME280;11441;57.164;-2.120;2022-12-01T02:06:54;102041.97;;;7.07;100.00
22550;BME280;11441;57.164;-2.120;2022-12-01T02:09:21;102041.97;;;7.07;100.00
22550;BME280;11441;57.164;-2.120;2022-12-01T02:23:24;102038.09;;;6.89;100.00
22550;BME280;11441;57.164;-2.120;2022-12-01T02:26:07;102039.97;;;6.94;100.00
22550;BME280;11441;57.164;-2.120;2022-12-01T02:33:52;102044.56;;;6.98;100.00
22550;BME280;11441;57.164;-2.120;2022-12-01T02:36:37;102046.53;;;6.93;100.00
22550;BME280;11441;57.164;-2.120;2022-12-01T02:39:12;102045.22;;;6.90;100.00
22550;BME280;11441;57.164;-2.120;2022-12-01T02:41:48;102050.72;;;6.90;100.00
22550;BME280;11441;57.164;-2.120;2022-12-01T02:44:21;102049.28;;;6.93;100.00
22550;BME280;11441;57.164;-2.120;2022-12-01T02:47:14;102042.13;;;6.78;100.00
22550;BME280;11441;57.164;-2.120;2022-12-01T02:49:50;102045.38;;;6.80;100.00
22550;BME280;11441;57.164;-2.120;2022-12-01T02:52:21;102055.66;;;6.88;100.00
22550;BME280;11441;57.164;-2.120;2022-12-01T02:54:49;102045.88;;;6.82;100.00
22550;BME280;11441;57.164;-2.120;2022-12-01T02:57:35;102058.84;;;6.95;100.00
22550;BME280;11441;57.164;-2.120;2022-12-01T03:00:02;102054.59;;;7.03;100.00
22550;BME280;11441;57.164;-2.120;2022-12-01T03:05:35;102047.31;;;6.98;100.00
22550;BME280;11441;57.164;-2.120;2022-12-01T03:08:29;102053.22;;;6.87;100.00
22550;BME280;11441;57.164;-2.120;2022-12-01T03:11:20;102049.75;;;6.81;100.00
22550;BME280;11441;57.164;-2.120;2022-12-01T03:14:02;102060.38;;;6.83;100.00
22550;BME280;11441;57.164;-2.120;2022-12-01T03:16:52;102057.28;;;6.70;100.00
22550;BME280;11441;57.164;-2.120;2022-12-01T03:19:28;102058.25;;;6.60;100.00
22550;BME280;11441;57.164;-2.120;2022-12-01T03:22:21;102050.03;;;6.60;100.00
22550;BME280;11441;57.164;-2.120;2022-12-01T03:24:53;102057.81;;;6.53;100.00
22550;BME280;11441;57.164;-2.120;2022-12-01T03:27:25;102048.97;;;6.56;100.00
22550;BME280;11441;57.164;-2.120;2022-12-01T03:29:55;102052.41;;;6.48;100.00
22550;BME280;11441;57.164;-2.120;2022-12-01T03:32:37;102056.53;;;6.65;100.00
22550;BME280;11441;57.164;-2.120;2022-12-01T03:35:12;102052.50;;;6.62;100.00
22550;BME280;11441;57.164;-2.120;2022-12-01T03:37:43;102044.41;;;6.52;100.00
22550;BME280;11441;57.164;-2.120;2022-12-01T03:40:15;102050.25;;;6.45;100.00
22550;BME280;11441;57.164;-2.120;2022-12-01T03:42:48;102053.06;;;6.59;100.00
22550;BME280;11441;57.164;-2.120;2022-12-01T03:45:23;102046.25;;;6.56;100.00
22550;BME280;11441;57.164;-2.120;2022-12-01T03:47:52;102050.41;;;6.54;100.00
22550;BME280;11441;57.164;-2.120;2022-12-01T03:50:19;102058.31;;;6.55;100.00
22550;BME280;11441;57.164;-2.120;2022-12-01T03:53:13;102049.34;;;6.69;100.00
22550;BME280;11441;57.164;-2.120;2022-12-01T03:55:50;102055.75;;;6.64;100.00
22550;BME280;11441;57.164;-2.120;2022-12-01T03:58:39;102047.31;;;6.60;100.00
22550;BME280;11441;57.164;-2.120;2022-12-01T04:01:08;102046.09;;;6.67;100.00
22550;BME280;11441;57.164;-2.120;2022-12-01T04:03:35;102055.91;;;6.73;100.00
22550;BME280;11441;57.164;-2.120;2022-12-01T04:06:02;102045.50;;;6.51;100.00
22550;BME280;11441;57.164;-2.120;2022-12-01T04:08:29;102036.06;;;6.62;100.00
22550;BME280;11441;57.164;-2.120;2022-12-01T04:10:56;102039.44;;;6.54;100.00
22550;BME280;11441;57.164;-2.120;2022-12-01T04:13:23;102045.38;;;6.61;100.00
22550;BME280;11441;57.164;-2.120;2022-12-01T04:16:09;102049.06;;;6.70;100.00
22550;BME280;11441;57.164;-2.120;2022-12-01T04:18:36;102044.72;;;6.69;100.00
22550;BME280;11441;57.164;-2.120;2022-12-01T04:21:03;102049.81;;;6.76;100.00
22550;BME280;11441;57.164;-2.120;2022-12-01T04:23:30;102041.91;;;6.74;100.00
22550;BME280;11441;57.164;-2.120;2022-12-01T04:26:15;102047.59;;;6.59;100.00
22550;BME280;11441;57.164;-2.120;2022-12-01T04:29:04;102036.13;;;6.76;100.00
22550;BME280;11441;57.164;-2.120;2022-12-01T04:31:31;102035.97;;;6.48;100.00
22550;BME280;11441;57.164;-2.120;2022-12-01T04:33:58;102042.34;;;6.63;100.00
22550;BME280;11441;57.164;-2.120;2022-12-01T04:36:28;102048.63;;;6.63;100.00
22550;BME280;11441;57.164;-2.120;2022-12-01T04:38:56;102046.94;;;6.67;100.00
22550;BME280;11441;57.164;-2.120;2022-12-01T04:41:23;102036.28;;;6.66;100.00
22550;BME280;11441;57.164;-2.120;2022-12-01T04:43:54;102027.00;;;6.61;100.00
22550;BME280;11441;57.164;-2.120;2022-12-01T04:46:22;102024.34;;;6.56;100.00
22550;BME280;11441;57.164;-2.120;2022-12-01T04:48:49;102017.56;;;6.54;100.00
22550;BME280;11441;57.164;-2.120;2022-12-01T04:51:16;102020.88;;;6.70;100.00
22550;BME280;11441;57.164;-2.120;2022-12-01T04:53:43;102012.59;;;6.56;100.00
22550;BME280;11441;57.164;-2.120;2022-12-01T04:56:28;102016.22;;;6.51;100.00
22550;BME280;11441;57.164;-2.120;2022-12-01T04:58:55;102022.97;;;6.59;100.00
22550;BME280;11441;57.164;-2.120;2022-12-01T05:01:24;102035.16;;;6.67;100.00
22550;BME280;11441;57.164;-2.120;2022-12-01T05:03:51;102031.91;;;6.65;100.00
22550;BME280;11441;57.164;-2.120;2022-12-01T05:06:20;102025.69;;;6.59;100.00
22550;BME280;11441;57.164;-2.120;2022-12-01T05:08:49;102026.94;;;6.67;100.00
22550;BME280;11441;57.164;-2.120;2022-12-01T05:14:20;102026.72;;;6.63;100.00
22550;BME280;11441;57.164;-2.120;2022-12-01T05:16:47;102030.59;;;6.62;100.00
22550;BME280;11441;57.164;-2.120;2022-12-01T05:19:14;102034.28;;;6.71;100.00
22550;BME280;11441;57.164;-2.120;2022-12-01T05:22:00;102033.97;;;6.73;100.00
22550;BME280;11441;57.164;-2.120;2022-12-01T05:24:27;102031.47;;;6.57;100.00
22550;BME280;11441;57.164;-2.120;2022-12-01T05:26:53;102029.16;;;6.65;100.00
22550;BME280;11441;57.164;-2.120;2022-12-01T05:29:20;102032.13;;;6.68;100.00
22550;BME280;11441;57.164;-2.120;2022-12-01T05:31:47;102032.63;;;6.51;100.00
22550;BME280;11441;57.164;-2.120;2022-12-01T05:34:14;102023.84;;;6.54;100.00
22550;BME280;11441;57.164;-2.120;2022-12-01T05:36:41;102029.81;;;6.56;100.00
22550;BME280;11441;57.164;-2.120;2022-12-01T05:39:08;102031.25;;;6.54;100.00
22550;BME280;11441;57.164;-2.120;2022-12-01T05:41:35;102023.09;;;6.49;100.00
22550;BME280;11441;57.164;-2.120;2022-12-01T05:44:02;102024.75;;;6.50;100.00
22550;BME280;11441;57.164;-2.120;2022-12-01T05:46:29;102029.38;;;6.49;100.00
22550;BME280;11441;57.164;-2.120;2022-12-01T05:48:56;102026.50;;;6.40;100.00
22550;BME280;11441;57.164;-2.120;2022-12-01T05:51:22;102025.47;;;6.55;100.00
22550;BME280;11441;57.164;-2.120;2022-12-01T05:54:28;102030.00;;;6.46;100.00
22550;BME280;11441;57.164;-2.120;2022-12-01T05:57:13;102032.63;;;6.51;100.00
22550;BME280;11441;57.164;-2.120;2022-12-01T05:59:59;102042.47;;;6.52;100.00
22550;BME280;11441;57.164;-2.120;2022-12-01T06:02:25;102038.03;;;6.56;100.00
22550;BME280;11441;57.164;-2.120;2022-12-01T06:05:11;102031.09;;;6.64;100.00
22550;BME280;11441;57.164;-2.120;2022-12-01T06:07:38;102027.78;;;6.48;100.00
22550;BME280;11441;57.164;-2.120;2022-12-01T06:10:07;102030.81;;;6.66;100.00
22550;BME280;11441;57.164;-2.120;2022-12-01T06:12:35;102028.72;;;6.57;100.00
22550;BME280;11441;57.164;-2.120;2022-12-01T06:15:20;102033.47;;;6.52;100.00
22550;BME280;11441;57.164;-2.120;2022-12-01T06:17:47;102033.09;;;6.58;100.00
22550;BME280;11441;57.164;-2.120;2022-12-01T06:20:14;102036.06;;;6.62;100.00
22550;BME280;11441;57.164;-2.120;2022-12-01T06:22:41;102036.88;;;6.63;100.00
22550;BME280;11441;57.164;-2.120;2022-12-01T06:25:08;102039.75;;;6.71;100.00
22550;BME280;11441;57.164;-2.120;2022-12-01T06:27:36;102030.75;;;6.71;100.00
22550;BME280;11441;57.164;-2.120;2022-12-01T06:30:03;102030.75;;;6.71;100.00
22550;BME280;11441;57.164;-2.120;2022-12-01T06:32:31;102038.72;;;6.67;100.00
22550;BME280;11441;57.164;-2.120;2022-12-01T06:34:57;102040.06;;;6.70;100.00
22550;BME280;11441;57.164;-2.120;2022-12-01T06:37:26;102039.47;;;6.73;100.00
22550;BME280;11441;57.164;-2.120;2022-12-01T06:39:52;102039.59;;;6.63;100.00
22550;BME280;11441;57.164;-2.120;2022-12-01T06:42:19;102040.13;;;6.65;100.00
22550;BME280;11441;57.164;-2.120;2022-12-01T06:44:46;102032.78;;;6.60;100.00
22550;BME280;11441;57.164;-2.120;2022-12-01T06:47:13;102035.53;;;6.41;100.00
22550;BME280;11441;57.164;-2.120;2022-12-01T06:50:00;102034.19;;;6.57;100.00
22550;BME280;11441;57.164;-2.120;2022-12-01T06:52:27;102036.56;;;6.64;100.00
22550;BME280;11441;57.164;-2.120;2022-12-01T06:54:54;102041.00;;;6.60;100.00
22550;BME280;11441;57.164;-2.120;2022-12-01T06:57:21;102041.75;;;6.66;100.00
22550;BME280;11441;57.164;-2.120;2022-12-01T07:00:07;102036.78;;;6.68;100.00
22550;BME280;11441;57.164;-2.120;2022-12-01T07:02:35;102043.38;;;6.67;100.00
22550;BME280;11441;57.164;-2.120;2022-12-01T07:05:20;102048.41;;;6.78;100.00
22550;BME280;11441;57.164;-2.120;2022-12-01T07:07:47;102049.81;;;6.76;100.00
22550;BME280;11441;57.164;-2.120;2022-12-01T07:10:14;102048.41;;;6.78;100.00
22550;BME280;11441;57.164;-2.120;2022-12-01T07:12:41;102048.63;;;6.82;100.00
22550;BME280;11441;57.164;-2.120;2022-12-01T07:15:08;102046.81;;;6.77;100.00
22550;BME280;11441;57.164;-2.120;2022-12-01T07:17:35;102049.22;;;6.79;100.00
22550;BME280;11441;57.164;-2.120;2022-12-01T07:20:02;102053.31;;;6.82;100.00
22550;BME280;11441;57.164;-2.120;2022-12-01T07:22:29;102047.81;;;6.63;100.00
22550;BME280;11441;57.164;-2.120;2022-12-01T07:24:58;102051.94;;;6.79;100.00
22550;BME280;11441;57.164;-2.120;2022-12-01T07:27:28;102057.75;;;6.77;100.00
22550;BME280;11441;57.164;-2.120;2022-12-01T07:29:55;102051.66;;;6.80;100.00
22550;BME280;11441;57.164;-2.120;2022-12-01T07:32:22;102062.25;;;6.68;100.00
22550;BME280;11441;57.164;-2.120;2022-12-01T07:34:49;102062.63;;;6.80;100.00
22550;BME280;11441;57.164;-2.120;2022-12-01T07:37:16;102064.19;;;6.68;100.00
22550;BME280;11441;57.164;-2.120;2022-12-01T07:39:43;102061.28;;;6.78;100.00
22550;BME280;11441;57.164;-2.120;2022-12-01T07:42:28;102066.03;;;6.72;100.00
22550;BME280;11441;57.164;-2.120;2022-12-01T07:44:55;102062.47;;;6.72;100.00
22550;BME280;11441;57.164;-2.120;2022-12-01T07:47:22;102059.22;;;6.70;100.00
22550;BME280;11441;57.164;-2.120;2022-12-01T07:49:48;102061.38;;;6.73;100.00
22550;BME280;11441;57.164;-2.120;2022-12-01T07:52:16;102049.00;;;6.75;100.00
22550;BME280;11441;57.164;-2.120;2022-12-01T07:54:43;102054.19;;;6.77;100.00
22550;BME280;11441;57.164;-2.120;2022-12-01T07:57:09;102058.56;;;6.78;100.00
22550;BME280;11441;57.164;-2.120;2022-12-01T07:59:39;102056.91;;;6.96;100.00
22550;BME280;11441;57.164;-2.120;2022-12-01T08:02:08;102063.28;;;6.91;100.00
22550;BME280;11441;57.164;-2.120;2022-12-01T08:04:36;102059.59;;;6.82;100.00
22550;BME280;11441;57.164;-2.120;2022-12-01T08:07:03;102067.34;;;6.75;100.00
22550;BME280;11441;57.164;-2.120;2022-12-01T08:09:30;102070.81;;;6.80;100.00
22550;BME280;11441;57.164;-2.120;2022-12-01T08:11:57;102069.06;;;6.90;100.00
22550;BME280;11441;57.164;-2.120;2022-12-01T08:14:23;102068.94;;;6.81;100.00
22550;BME280;11441;57.164;-2.120;2022-12-01T08:16:50;102073.19;;;6.87;100.00
22550;BME280;11441;57.164;-2.120;2022-12-01T08:19:17;102072.69;;;6.85;100.00
22550;BME280;11441;57.164;-2.120;2022-12-01T08:21:44;102075.94;;;6.87;100.00
22550;BME280;11441;57.164;-2.120;2022-12-01T08:24:11;102069.72;;;6.82;100.00
22550;BME280;11441;57.164;-2.120;2022-12-01T08:26:38;102076.31;;;6.99;100.00
22550;BME280;11441;57.164;-2.120;2022-12-01T08:29:05;102087.25;;;6.80;100.00
22550;BME280;11441;57.164;-2.120;2022-12-01T08:31:32;102089.84;;;6.91;100.00
22550;BME280;11441;57.164;-2.120;2022-12-01T08:34:04;102096.81;;;7.02;100.00
22550;BME280;11441;57.164;-2.120;2022-12-01T08:36:32;102096.63;;;6.98;100.00
22550;BME280;11441;57.164;-2.120;2022-12-01T08:38:59;102100.44;;;6.97;100.00
22550;BME280;11441;57.164;-2.120;2022-12-01T08:41:26;102092.88;;;6.89;100.00
22550;BME280;11441;57.164;-2.120;2022-12-01T08:43:54;102097.28;;;6.90;100.00
22550;BME280;11441;57.164;-2.120;2022-12-01T08:46:26;102102.16;;;6.93;100.00
22550;BME280;11441;57.164;-2.120;2022-12-01T08:48:54;102107.56;;;6.98;100.00
22550;BME280;11441;57.164;-2.120;2022-12-01T08:51:42;102097.56;;;7.08;100.00
22550;BME280;11441;57.164;-2.120;2022-12-01T08:54:10;102107.03;;;6.96;100.00
22550;BME280;11441;57.164;-2.120;2022-12-01T08:56:56;102102.38;;;6.97;100.00
22550;BME280;11441;57.164;-2.120;2022-12-01T08:59:23;102102.91;;;6.99;100.00
22550;BME280;11441;57.164;-2.120;2022-12-01T09:01:50;102093.31;;;6.96;100.00
22550;BME280;11441;57.164;-2.120;2022-12-01T09:04:38;102100.75;;;6.96;100.00
22550;BME280;11441;57.164;-2.120;2022-12-01T09:07:05;102091.00;;;6.90;100.00
22550;BME280;11441;57.164;-2.120;2022-12-01T09:09:35;102090.81;;;7.00;100.00
22550;BME280;11441;57.164;-2.120;2022-12-01T09:12:02;102082.78;;;6.90;100.00
22550;BME280;11441;57.164;-2.120;2022-12-01T09:14:29;102086.31;;;6.90;100.00
22550;BME280;11441;57.164;-2.120;2022-12-01T09:16:56;102088.75;;;6.92;100.00
22550;BME280;11441;57.164;-2.120;2022-12-01T09:19:22;102083.28;;;6.92;100.00
22550;BME280;11441;57.164;-2.120;2022-12-01T09:21:51;102081.28;;;6.97;100.00
22550;BME280;11441;57.164;-2.120;2022-12-01T09:24:18;102086.03;;;6.92;100.00
22550;BME280;11441;57.164;-2.120;2022-12-01T09:26:45;102080.97;;;6.80;100.00
22550;BME280;11441;57.164;-2.120;2022-12-01T09:29:31;102085.09;;;6.96;100.00
22550;BME280;11441;57.164;-2.120;2022-12-01T09:31:59;102088.84;;;7.06;100.00
22550;BME280;11441;57.164;-2.120;2022-12-01T09:34:26;102086.91;;;7.06;100.00
22550;BME280;11441;57.164;-2.120;2022-12-01T09:37:12;102089.94;;;7.05;100.00
22550;BME280;11441;57.164;-2.120;2022-12-01T09:39:39;102086.16;;;7.01;100.00
22550;BME280;11441;57.164;-2.120;2022-12-01T09:42:15;102087.03;;;7.15;100.00
22550;BME280;11441;57.164;-2.120;2022-12-01T09:47:18;102084.31;;;6.96;100.00
22550;BME280;11441;57.164;-2.120;2022-12-01T09:50:03;102083.28;;;7.11;100.00
22550;BME280;11441;57.164;-2.120;2022-12-01T09:52:40;102087.03;;;7.15;100.00
22550;BME280;11441;57.164;-2.120;2022-12-01T09:55:14;102093.16;;;7.26;100.00
22550;BME280;11441;57.164;-2.120;2022-12-01T09:57:42;102094.38;;;7.20;100.00
22550;BME280;11441;57.164;-2.120;2022-12-01T10:00:32;102104.72;;;7.23;100.00
22550;BME280;11441;57.164;-2.120;2022-12-01T10:06:23;102094.44;;;7.14;100.00
22550;BME280;11441;57.164;-2.120;2022-12-01T10:11:47;102100.88;;;7.24;100.00
22550;BME280;11441;57.164;-2.120;2022-12-01T10:14:18;102094.88;;;7.22;100.00
22550;BME280;11441;57.164;-2.120;2022-12-01T10:19:59;102096.53;;;7.36;100.00
22550;BME280;11441;57.164;-2.120;2022-12-01T10:25:23;102102.50;;;7.44;100.00
22550;BME280;11441;57.164;-2.120;2022-12-01T10:28:03;102096.03;;;7.34;100.00
22550;BME280;11441;57.164;-2.120;2022-12-01T10:30:37;102089.47;;;7.35;100.00
22550;BME280;11441;57.164;-2.120;2022-12-01T10:33:34;102087.47;;;7.55;100.00
22550;BME280;11441;57.164;-2.120;2022-12-01T10:36:25;102088.06;;;7.52;100.00
22550;BME280;11441;57.164;-2.120;2022-12-01T10:38:52;102087.06;;;7.48;100.00
22550;BME280;11441;57.164;-2.120;2022-12-01T10:41:21;102091.06;;;7.36;100.00
22550;BME280;11441;57.164;-2.120;2022-12-01T10:43:51;102084.44;;;7.57;100.00
22550;BME280;11441;57.164;-2.120;2022-12-01T10:46:53;102087.31;;;7.32;100.00
22550;BME280;11441;57.164;-2.120;2022-12-01T10:49:40;102069.00;;;7.28;100.00
22550;BME280;11441;57.164;-2.120;2022-12-01T10:52:33;102079.13;;;7.46;100.00
22550;BME280;11441;57.164;-2.120;2022-12-01T10:55:04;102083.63;;;7.56;100.00
22550;BME280;11441;57.164;-2.120;2022-12-01T10:57:31;102080.22;;;7.45;100.00
22550;BME280;11441;57.164;-2.120;2022-12-01T11:00:06;102082.09;;;7.50;100.00
22550;BME280;11441;57.164;-2.120;2022-12-01T11:02:34;102083.31;;;7.44;100.00
22550;BME280;11441;57.164;-2.120;2022-12-01T11:05:17;102079.34;;;7.50;100.00
22550;BME280;11441;57.164;-2.120;2022-12-01T11:07:45;102073.84;;;7.50;100.00
22550;BME280;11441;57.164;-2.120;2022-12-01T11:10:23;102083.84;;;7.60;100.00
22550;BME280;11441;57.164;-2.120;2022-12-01T11:13:06;102078.41;;;7.41;100.00
22550;BME280;11441;57.164;-2.120;2022-12-01T11:15:58;102079.59;;;7.34;100.00
22550;BME280;11441;57.164;-2.120;2022-12-01T11:18:35;102074.25;;;7.43;100.00
22550;BME280;11441;57.164;-2.120;2022-12-01T11:21:25;102079.94;;;7.47;100.00
22550;BME280;11441;57.164;-2.120;2022-12-01T11:23:54;102085.53;;;7.55;100.00
22550;BME280;11441;57.164;-2.120;2022-12-01T11:26:29;102088.00;;;7.57;100.00
22550;BME280;11441;57.164;-2.120;2022-12-01T11:29:05;102082.09;;;7.50;100.00
22550;BME280;11441;57.164;-2.120;2022-12-01T11:31:37;102079.94;;;7.47;100.00
22550;BME280;11441;57.164;-2.120;2022-12-01T11:34:18;102086.06;;;7.25;100.00
22550;BME280;11441;57.164;-2.120;2022-12-01T11:36:48;102082.50;;;7.24;100.00
22550;BME280;11441;57.164;-2.120;2022-12-01T11:39:29;102077.69;;;7.35;100.00
22550;BME280;11441;57.164;-2.120;2022-12-01T11:42:22;102070.09;;;7.46;100.00
22550;BME280;11441;57.164;-2.120;2022-12-01T11:45:07;102064.34;;;7.61;100.00
22550;BME280;11441;57.164;-2.120;2022-12-01T11:50:34;102065.41;;;7.46;100.00
22550;BME280;11441;57.164;-2.120;2022-12-01T11:53:32;102064.66;;;7.60;100.00
22550;BME280;11441;57.164;-2.120;2022-12-01T12:01:33;102051.16;;;7.63;100.00
22550;BME280;11441;57.164;-2.120;2022-12-01T12:04:42;102057.06;;;7.70;100.00
22550;BME280;11441;57.164;-2.120;2022-12-01T12:07:36;102054.41;;;7.65;100.00
22550;BME280;11441;57.164;-2.120;2022-12-01T12:16:17;102039.47;;;7.71;100.00
22550;BME280;11441;57.164;-2.120;2022-12-01T12:19:03;102044.44;;;7.69;100.00
22550;BME280;11441;57.164;-2.120;2022-12-01T12:21:46;102043.00;;;7.58;100.00
22550;BME280;11441;57.164;-2.120;2022-12-01T12:30:14;102034.41;;;7.79;100.00
22550;BME280;11441;57.164;-2.120;2022-12-01T12:32:52;102044.06;;;7.76;100.00
22550;BME280;11441;57.164;-2.120;2022-12-01T12:35:47;102038.78;;;7.80;100.00
22550;BME280;11441;57.164;-2.120;2022-12-01T12:43:49;102041.59;;;7.74;100.00
22550;BME280;11441;57.164;-2.120;2022-12-01T12:57:39;102041.81;;;7.78;100.00
22550;BME280;11441;57.164;-2.120;2022-12-01T13:00:16;102039.56;;;7.80;100.00
22550;BME280;11441;57.164;-2.120;2022-12-01T13:03:01;102035.31;;;7.88;100.00
22550;BME280;11441;57.164;-2.120;2022-12-01T13:08:10;102039.19;;;7.87;100.00
22550;BME280;11441;57.164;-2.120;2022-12-01T13:10:48;102036.22;;;7.83;100.00
22550;BME280;11441;57.164;-2.120;2022-12-01T13:13:41;102043.03;;;7.72;100.00
22550;BME280;11441;57.164;-2.120;2022-12-01T13:16:17;102046.28;;;7.74;100.00
22550;BME280;11441;57.164;-2.120;2022-12-01T13:18:52;102042.22;;;7.58;100.00
22550;BME280;11441;57.164;-2.120;2022-12-01T13:21:22;102038.75;;;7.66;100.00
22550;BME280;11441;57.164;-2.120;2022-12-01T13:23:50;102043.44;;;7.65;100.00
22550;BME280;11441;57.164;-2.120;2022-12-01T13:26:19;102045.28;;;7.70;100.00
22550;BME280;11441;57.164;-2.120;2022-12-01T13:28:49;102031.66;;;7.65;100.00
22550;BME280;11441;57.164;-2.120;2022-12-01T13:31:18;102038.66;;;7.71;100.00
22550;BME280;11441;57.164;-2.120;2022-12-01T13:36:56;102038.34;;;7.72;100.00
22550;BME280;11441;57.164;-2.120;2022-12-01T13:39:29;102039.56;;;7.80;100.00
22550;BME280;11441;57.164;-2.120;2022-12-01T13:42:05;102029.94;;;7.69;100.00
22550;BME280;11441;57.164;-2.120;2022-12-01T13:44:36;102026.88;;;7.57;100.00
22550;BME280;11441;57.164;-2.120;2022-12-01T13:49:41;102029.81;;;7.74;100.00
22550;BME280;11441;57.164;-2.120;2022-12-01T13:57:42;102021.69;;;7.69;100.00
22550;BME280;11441;57.164;-2.120;2022-12-01T14:00:29;102022.41;;;7.74;100.00
22550;BME280;11441;57.164;-2.120;2022-12-01T14:05:45;102026.38;;;7.82;100.00
22550;BME280;11441;57.164;-2.120;2022-12-01T14:08:32;102024.44;;;7.83;100.00
22550;BME280;11441;57.164;-2.120;2022-12-01T14:11:04;102021.31;;;7.76;100.00
22550;BME280;11441;57.164;-2.120;2022-12-01T14:13:48;102020.50;;;7.75;100.00
22550;BME280;11441;57.164;-2.120;2022-12-01T14:16:16;102016.63;;;7.76;100.00
22550;BME280;11441;57.164;-2.120;2022-12-01T14:18:55;102018.16;;;7.68;100.00
22550;BME280;11441;57.164;-2.120;2022-12-01T14:21:42;102023.31;;;7.56;100.00
22550;BME280;11441;57.164;-2.120;2022-12-01T14:24:33;102021.50;;;7.79;100.00
22550;BME280;11441;57.164;-2.120;2022-12-01T14:27:02;102005.94;;;7.61;100.00
22550;BME280;11441;57.164;-2.120;2022-12-01T14:29:31;102017.31;;;7.68;100.00
22550;BME280;11441;57.164;-2.120;2022-12-01T14:32:02;102016.72;;;7.71;100.00
22550;BME280;11441;57.164;-2.120;2022-12-01T14:34:34;102011.84;;;7.82;100.00
22550;BME280;11441;57.164;-2.120;2022-12-01T14:37:15;102011.13;;;7.76;100.00
22550;BME280;11441;57.164;-2.120;2022-12-01T14:40:05;102014.38;;;7.78;100.00
22550;BME280;11441;57.164;-2.120;2022-12-01T14:42:39;102006.78;;;7.75;100.00